»·PEaware :: N167SB KBOI-KMSO

N167SB :: KBOI-KMSO

FLIGHT INFORMATION

Flight Status: Arrived
Operator: Privately registered:
United States
More flights under this callsign
Pilot: Dean S. (16265)
Aircraft: Unknown
(K350)
More flights by this aircraft type
Origin: KBOI Boise Air Terminal/Gowen
United States
Destination: KMSO Missoula Intl
United States
More flights between these airports :: More routes between these airports
Route: +
File this flight plan on PilotEdge
Remarks:
Altitude:
(Current/Filed)
13,500ft
Speed:
(Current/Filed)
290kts
Departed: 06-May-20 12:09 PM
Arrived: 06-May-20 01:04 PM
Distance/Time
Traveled:
221nm/0:55
Distance/Time
To Go:
Arrived

Flight Plot

Page will automatically refresh every two minutes.


Map Options




Map Legend


Flown Route
Filed Route
Departure Airport
Arrival Airport
Navaid (VOR, NDB)
Fix

Horizontal Profiles

Position Reports

Time Latitude Longitude Heading Altitude Ground
Speed
06-May-20 11:59 43.560808 -116.223839 142 2876ft 0kts
06-May-20 12:00 43.560806 -116.223837 142 2876ft 0kts
06-May-20 12:01 43.560803 -116.223834 142 2876ft 0kts
06-May-20 12:02 43.560895 -116.223396 13 2876ft 9kts
06-May-20 12:03 43.560694 -116.219148 114 2876ft 23kts
06-May-20 12:04 43.557917 -116.210804 101 2876ft 11kts
06-May-20 12:05 43.557999 -116.210074 39 2876ft 0kts
06-May-20 12:06 43.558001 -116.210072 39 2876ft 0kts
06-May-20 12:07 43.558941 -116.210065 297 2876ft 8kts
06-May-20 12:08 43.571292 -116.245681 298 3767ft 171kts
06-May-20 12:09 43.616553 -116.254658 22 5610ft 196kts
06-May-20 12:10 43.666853 -116.222150 26 7586ft 200kts
06-May-20 12:11 43.713695 -116.177416 40 9416ft 207kts
06-May-20 12:12 43.759671 -116.127205 37 11181ft 214kts
06-May-20 12:13 43.812362 -116.085963 34 12816ft 220kts
06-May-20 12:14 43.867540 -116.046058 22 14256ft 226kts
06-May-20 12:15 43.929575 -116.010041 21 14592ft 268kts
06-May-20 12:16 44.002882 -115.970969 20 14021ft 295kts
06-May-20 12:17 44.080705 -115.929792 21 13447ft 295kts
06-May-20 12:18 44.152900 -115.879575 27 13442ft 286kts
06-May-20 12:19 44.223147 -115.827723 26 13443ft 285kts
06-May-20 12:20 44.295816 -115.782874 23 13445ft 285kts
06-May-20 12:21 44.369013 -115.739524 22 13443ft 285kts
06-May-20 12:22 44.441977 -115.696284 22 13443ft 285kts
06-May-20 12:23 44.515175 -115.652852 22 13443ft 285kts
06-May-20 12:24 44.588370 -115.609367 22 13443ft 285kts
06-May-20 12:25 44.661321 -115.565975 22 13443ft 285kts
06-May-20 12:26 44.734317 -115.521346 26 13443ft 285kts
06-May-20 12:27 44.801162 -115.460317 39 13444ft 290kts
06-May-20 12:28 44.871778 -115.404975 25 13443ft 291kts
06-May-20 12:29 44.941131 -115.347146 26 13442ft 286kts
06-May-20 12:30 45.015036 -115.306951 17 13443ft 284kts
06-May-20 12:31 45.090087 -115.271931 22 13443ft 284kts
06-May-20 12:32 45.163922 -115.232143 19 13443ft 284kts
06-May-20 12:33 45.236208 -115.186619 26 13443ft 284kts
06-May-20 12:34 45.307812 -115.139320 25 13443ft 284kts
06-May-20 12:35 45.380457 -115.095913 25 13443ft 284kts
06-May-20 12:36 45.451093 -115.045398 27 13443ft 284kts
06-May-20 12:37 45.524153 -115.002148 22 13443ft 284kts
06-May-20 12:38 45.596338 -114.958217 22 13530ft 282kts
06-May-20 12:39 45.669182 -114.914786 24 13532ft 283kts
06-May-20 12:40 45.741363 -114.868593 23 13531ft 284kts
06-May-20 12:41 45.813470 -114.822728 23 13531ft 284kts
06-May-20 12:42 45.885937 -114.776589 23 13531ft 284kts
06-May-20 12:43 45.958134 -114.730573 23 13531ft 284kts
06-May-20 12:44 46.030473 -114.684418 23 13531ft 284kts
06-May-20 12:45 46.102773 -114.638238 23 13531ft 284kts
06-May-20 12:46 46.174805 -114.592184 23 13361ft 281kts
06-May-20 12:47 46.246776 -114.546136 23 13150ft 279kts
06-May-20 12:48 46.318148 -114.500431 23 12929ft 279kts
06-May-20 12:49 46.387087 -114.450745 37 12006ft 280kts
06-May-20 12:50 46.436193 -114.367247 59 11275ft 270kts
06-May-20 12:51 46.473569 -114.273036 60 10485ft 262kts
06-May-20 12:52 46.511000 -114.187785 51 8902ft 231kts
06-May-20 12:53 46.556898 -114.124960 36 7270ft 217kts
06-May-20 12:54 46.607909 -114.091908 15 6683ft 196kts
06-May-20 12:55 46.659065 -114.078102 8 6431ft 180kts
06-May-20 12:56 46.703738 -114.067592 11 6044ft 146kts
06-May-20 12:57 46.741714 -114.056156 9 5686ft 134kts
06-May-20 12:58 46.779465 -114.045823 12 5568ft 140kts
06-May-20 12:59 46.815934 -114.030791 16 5135ft 127kts
06-May-20 13:00 46.848779 -114.017558 12 4336ft 115kts
06-May-20 13:01 46.877451 -114.023136 303 3997ft 117kts
06-May-20 13:03 46.896799 -114.058621 312 3590ft 112kts
06-May-20 13:04 46.913353 -114.087009 311 3211ft 24kts
06-May-20 13:05 46.918158 -114.094015 31 3211ft 3kts
06-May-20 13:06 46.918179 -114.093996 31 3211ft 0kts
06-May-20 13:07 46.918344 -114.093837 34 3211ft 0kts
06-May-20 13:08 46.920938 -114.091127 37 3211ft 19kts
06-May-20 13:09 46.922452 -114.087242 122 3211ft 0kts
06-May-20 13:10 46.922452 -114.087242 122 3211ft 0kts
06-May-20 13:11 46.922452 -114.087242 122 3211ft 0kts
06-May-20 13:12 46.922452 -114.087242 122 3211ft 0kts
06-May-20 13:13 46.922452 -114.087242 122 3211ft 0kts
06-May-20 13:14 46.922452 -114.087242 122 3211ft 0kts
06-May-20 13:15 46.922452 -114.087242 122 3211ft 0kts
06-May-20 13:16 46.922452 -114.087242 122 3211ft 0kts
06-May-20 13:17 46.922452 -114.087242 122 3211ft 0kts
06-May-20 13:17 46.922452 -114.087242 122 3211ft 0kts

Navigation Log

Ident Type
Flight plan parsing failed, navigation log unavailable